Time;durP1;ratioP1;P1;durP2;ratioP2;P2;SDS_P1;SDS_P2;PMS_P1;PMS_P2;Temp;Humidity;BMP_temperature;BMP_pressure;BME280_temperature;BME280_humidity;BME280_pressure;Samples;Min_cycle;Max_cycle;Signal;HPM_P1;HPM_P2
2021/07/29 00:01:14;;;;;;;16.70;4.10;;;;;;;14.91;74.56;100830.44;5082111;28;20128;-61
2021/07/29 00:03:39;;;;;;;18.60;4.40;;;;;;;14.84;74.86;100828.75;5075751;28;20067;-62
2021/07/29 00:06:05;;;;;;;17.35;4.30;;;;;;;14.78;74.96;100839.47;5075898;28;20029;-61
2021/07/29 00:08:30;;;;;;;17.52;4.25;;;;;;;14.76;75.24;100841.28;5075816;28;20367;-61
2021/07/29 00:10:56;;;;;;;20.45;4.43;;;;;;;14.68;75.43;100837.81;5075609;28;20375;-61
2021/07/29 00:13:21;;;;;;;19.00;4.40;;;;;;;14.67;75.51;100825.44;5075917;28;20522;-61
2021/07/29 00:15:46;;;;;;;19.08;4.40;;;;;;;14.58;76.09;100832.59;5075578;28;20024;-61
2021/07/29 00:20:39;;;;;;;18.88;4.40;;;;;;;14.44;76.88;100829.22;5076173;28;20076;-61
2021/07/29 00:23:05;;;;;;;18.83;4.60;;;;;;;14.40;77.23;100827.50;5075259;28;20090;-62
2021/07/29 00:25:31;;;;;;;18.30;4.15;;;;;;;14.45;76.90;100831.00;5075368;28;20024;-62
2021/07/29 00:27:56;;;;;;;16.05;4.20;;;;;;;14.42;76.35;100825.72;5075538;28;20067;-62
2021/07/29 00:30:25;;;;;;;19.10;4.40;;;;;;;14.50;75.72;100825.63;5075616;28;20459;-61
2021/07/29 00:32:52;;;;;;;18.17;4.35;;;;;;;14.55;75.87;100826.44;5069840;28;20493;-61
2021/07/29 00:35:18;;;;;;;18.35;4.25;;;;;;;14.58;75.69;100829.94;5075402;28;20036;-61
2021/07/29 00:37:49;;;;;;;17.58;4.30;;;;;;;14.57;75.95;100824.63;5075067;28;20043;-62
2021/07/29 00:40:16;;;;;;;20.45;4.47;;;;;;;14.58;76.07;100827.28;5075108;28;20025;-62
2021/07/29 00:42:41;;;;;;;18.30;4.35;;;;;;;14.58;76.04;100829.94;5075369;28;20427;-62
2021/07/29 00:45:07;;;;;;;20.20;4.38;;;;;;;14.62;75.50;100845.00;5075039;28;20111;-61
2021/07/29 00:47:33;;;;;;;17.48;4.07;;;;;;;14.67;75.23;100831.63;5075098;28;20040;-63
2021/07/29 00:49:58;;;;;;;18.85;4.45;;;;;;;14.71;75.04;100828.03;5075991;28;20020;-62
2021/07/29 00:52:24;;;;;;;17.13;3.90;;;;;;;14.71;75.20;100833.38;5076396;28;20056;-61
2021/07/29 00:54:51;;;;;;;19.60;4.40;;;;;;;14.69;75.15;100827.16;5075835;28;20028;-61
2021/07/29 00:57:17;;;;;;;20.60;4.57;;;;;;;14.73;75.08;100833.34;5076028;28;20021;-60
2021/07/29 00:59:42;;;;;;;19.30;4.20;;;;;;;14.78;74.78;100826.16;5076388;28;20147;-61
2021/07/29 01:02:08;;;;;;;18.40;3.95;;;;;;;14.77;74.84;100821.75;5076042;28;20054;-62
2021/07/29 01:04:34;;;;;;;18.63;3.85;;;;;;;14.73;75.29;100822.69;5074872;28;20024;-61
2021/07/29 01:07:00;;;;;;;19.17;4.35;;;;;;;14.80;74.78;100824.38;5075590;28;20027;-61
2021/07/29 01:09:25;;;;;;;20.20;4.25;;;;;;;14.82;74.42;100827.88;5076212;28;20056;-62
2021/07/29 01:11:51;;;;;;;19.05;4.30;;;;;;;14.82;74.76;100825.22;5072866;28;20486;-61
2021/07/29 01:14:16;;;;;;;18.17;4.20;;;;;;;14.78;75.10;100820.84;5076544;28;20032;-61
2021/07/29 01:16:42;;;;;;;21.25;4.30;;;;;;;14.81;75.14;100819.03;5077437;28;20020;-61
2021/07/29 01:19:09;;;;;;;20.08;4.05;;;;;;;14.86;74.17;100816.31;5075974;28;20035;-64
2021/07/29 01:21:35;;;;;;;20.02;4.18;;;;;;;14.87;74.09;100820.75;5075097;28;20108;-61
2021/07/29 01:24:01;;;;;;;20.08;4.38;;;;;;;14.85;74.41;100816.31;5077125;28;20035;-62
2021/07/29 01:26:27;;;;;;;20.27;4.15;;;;;;;14.89;73.72;100816.25;5077320;28;20020;-61
2021/07/29 01:28:53;;;;;;;18.80;4.15;;;;;;;14.87;74.46;100826.06;5078448;28;20383;-62
2021/07/29 01:31:18;;;;;;;20.75;4.18;;;;;;;14.89;73.96;100820.72;5076717;28;20025;-63
2021/07/29 01:33:44;;;;;;;19.40;4.20;;;;;;;14.91;74.00;100818.91;5075980;28;20021;-62
2021/07/29 01:36:10;;;;;;;18.65;4.32;;;;;;;14.93;73.95;100807.34;5074462;28;20153;-62
2021/07/29 01:38:35;;;;;;;21.20;4.43;;;;;;;14.89;73.69;100810.94;5074335;28;20028;-61
2021/07/29 01:41:04;;;;;;;18.20;3.90;;;;;;;14.86;74.23;100810.97;5074187;28;20481;-62
2021/07/29 01:43:30;;;;;;;21.60;4.20;;;;;;;14.79;74.02;100794.25;5073865;28;20062;-60
2021/07/29 01:45:57;;;;;;;20.48;4.38;;;;;;;14.76;74.52;100812.00;5073729;28;20499;-61
2021/07/29 01:48:22;;;;;;;19.80;4.15;;;;;;;14.77;74.34;100811.13;5073680;28;20028;-61
2021/07/29 01:50:48;;;;;;;19.02;4.07;;;;;;;14.68;74.64;100811.22;5073975;28;20028;-61
2021/07/29 01:53:13;;;;;;;20.85;4.40;;;;;;;14.64;75.25;100811.25;5075758;28;20028;-66
2021/07/29 01:55:45;;;;;;;19.40;4.25;;;;;;;14.58;75.45;100815.78;5075349;28;20024;-62
2021/07/29 01:58:11;;;;;;;20.00;4.15;;;;;;;14.50;75.82;100814.97;5075349;28;20060;-66
2021/07/29 02:00:38;;;;;;;18.92;4.07;;;;;;;14.38;76.47;100816.00;5073864;28;20029;-62
2021/07/29 02:03:04;;;;;;;18.92;4.30;;;;;;;14.35;76.83;100822.22;5073774;28;20028;-66
2021/07/29 02:05:30;;;;;;;21.02;4.15;;;;;;;14.33;77.16;100820.47;5073674;28;20455;-64
2021/07/29 02:07:56;;;;;;;21.63;4.25;;;;;;;14.33;77.21;100825.81;5073561;28;20036;-67
2021/07/29 02:10:21;;;;;;;19.25;4.38;;;;;;;14.24;77.84;100819.72;5069420;28;20028;-63
2021/07/29 02:12:46;;;;;;;19.95;4.40;;;;;;;14.18;78.64;100814.44;5073228;28;20064;-61
2021/07/29 02:15:12;;;;;;;20.20;4.57;;;;;;;14.15;79.05;100817.13;5073380;28;20025;-61
2021/07/29 02:17:37;;;;;;;22.00;4.57;;;;;;;14.08;79.17;100810.13;5073307;28;20029;-61
2021/07/29 02:20:03;;;;;;;17.83;4.35;;;;;;;14.05;79.46;100810.16;5073512;28;20097;-60
2021/07/29 02:22:28;;;;;;;20.85;4.95;;;;;;;14.05;79.77;100815.47;5073305;28;20017;-64
2021/07/29 02:24:54;;;;;;;20.85;4.70;;;;;;;14.04;79.94;100813.72;5073234;28;20108;-63
2021/07/29 02:27:23;;;;;;;21.73;4.60;;;;;;;14.03;79.99;100818.16;5073079;28;20044;-62
2021/07/29 02:29:48;;;;;;;19.23;4.22;;;;;;;13.99;80.29;100815.53;5073355;28;20116;-62
2021/07/29 02:32:14;;;;;;;20.85;5.00;;;;;;;13.94;80.93;100813.81;5072958;28;20426;-64
2021/07/29 02:34:39;;;;;;;21.23;4.63;;;;;;;13.95;81.05;100820.91;5072946;28;20103;-61
2021/07/29 02:37:04;;;;;;;20.73;4.70;;;;;;;13.92;80.92;100815.63;5073099;28;20020;-61
2021/07/29 02:39:30;;;;;;;22.85;4.43;;;;;;;13.88;81.66;100824.50;5073034;28;20364;-61
2021/07/29 02:41:55;;;;;;;21.80;4.80;;;;;;;13.93;81.68;100813.81;5073320;28;20020;-61
2021/07/29 02:44:20;;;;;;;21.38;4.90;;;;;;;13.89;82.14;100815.66;5072831;28;20104;-62
2021/07/29 02:46:45;;;;;;;24.63;5.25;;;;;;;13.91;81.95;100808.53;5072947;28;20111;-63
2021/07/29 02:49:11;;;;;;;21.42;4.82;;;;;;;13.86;82.38;100818.34;5073177;28;20017;-61
2021/07/29 02:51:36;;;;;;;22.85;5.13;;;;;;;13.90;82.08;100838.66;5072615;28;20390;-61
2021/07/29 02:54:01;;;;;;;22.27;5.13;;;;;;;13.87;82.56;100838.69;5072597;28;20025;-62
2021/07/29 02:56:27;;;;;;;21.15;4.90;;;;;;;13.87;82.49;100838.69;5072011;28;20017;-64
2021/07/29 02:58:52;;;;;;;20.60;4.82;;;;;;;13.80;83.50;100834.31;5072584;28;20047;-61
2021/07/29 03:01:17;;;;;;;25.80;5.45;;;;;;;13.82;83.33;100829.88;5078686;28;20542;-67
2021/07/29 03:03:44;;;;;;;21.73;5.15;;;;;;;13.79;83.48;100840.53;5083428;28;20048;-65
2021/07/29 03:06:10;;;;;;;21.30;5.03;;;;;;;13.72;84.24;100836.19;5084080;28;20025;-66
2021/07/29 03:08:36;;;;;;;23.33;5.25;;;;;;;13.77;84.17;100837.00;5081148;28;20031;-66
2021/07/29 03:11:01;;;;;;;21.83;4.82;;;;;;;13.81;83.83;100832.56;5091817;28;20025;-61
2021/07/29 03:13:27;;;;;;;22.55;5.03;;;;;;;13.76;84.34;100835.22;5075044;28;20055;-61
2021/07/29 03:15:52;;;;;;;21.70;4.85;;;;;;;13.71;84.93;100840.59;5072791;28;20032;-61
2021/07/29 03:18:18;;;;;;;21.90;5.20;;;;;;;13.73;85.15;100843.22;5080152;28;20020;-61
2021/07/29 03:20:43;;;;;;;22.90;5.18;;;;;;;13.66;85.64;100841.53;5081512;28;20049;-62
2021/07/29 03:23:09;;;;;;;21.67;4.80;;;;;;;13.62;86.37;100842.47;5080242;28;20068;-61
2021/07/29 03:25:35;;;;;;;22.80;5.57;;;;;;;13.63;86.25;100833.59;5073619;28;20021;-61
2021/07/29 03:28:00;;;;;;;21.63;5.15;;;;;;;13.57;86.95;100835.41;5072345;28;20036;-61
2021/07/29 03:30:26;;;;;;;21.27;4.88;;;;;;;13.53;87.14;100844.28;5072823;28;20112;-61
2021/07/29 03:32:51;;;;;;;21.77;4.90;;;;;;;13.55;87.22;100831.00;5072293;28;20028;-60
2021/07/29 03:35:17;;;;;;;21.40;5.30;;;;;;;13.59;86.54;100838.91;5072283;28;20020;-61
2021/07/29 03:37:42;;;;;;;22.70;5.40;;;;;;;13.64;86.55;100841.53;5072440;28;20086;-61
2021/07/29 03:40:08;;;;;;;22.25;5.50;;;;;;;13.51;88.18;100846.06;5072245;28;20024;-61
2021/07/29 03:42:34;;;;;;;23.33;5.32;;;;;;;13.50;88.16;100843.41;5072394;28;20031;-60
2021/07/29 03:45:01;;;;;;;23.25;5.22;;;;;;;13.46;88.55;100852.31;5072305;28;20032;-61
2021/07/29 03:47:27;;;;;;;20.48;5.10;;;;;;;13.52;87.96;100853.13;5072549;28;20060;-60
2021/07/29 03:49:53;;;;;;;21.90;5.13;;;;;;;13.48;88.24;100848.75;5068323;28;20032;-61
2021/07/29 03:52:19;;;;;;;22.30;5.35;;;;;;;13.47;88.67;100848.75;5072157;28;20036;-60
2021/07/29 03:54:44;;;;;;;22.60;5.40;;;;;;;13.49;88.79;100852.31;5072141;28;20488;-61
2021/07/29 03:57:09;;;;;;;24.23;5.15;;;;;;;13.50;88.80;100854.94;5072009;28;20025;-61
2021/07/29 03:59:38;;;;;;;24.80;5.50;;;;;;;13.55;88.55;100853.13;5072133;28;20101;-60
2021/07/29 04:02:10;;;;;;;23.38;5.50;;;;;;;13.57;88.75;100856.66;5072057;28;20391;-61
2021/07/29 04:04:39;;;;;;;22.50;5.28;;;;;;;13.69;87.39;100860.09;5072074;28;20096;-61
2021/07/29 04:07:05;;;;;;;22.50;5.43;;;;;;;13.77;87.02;100864.47;5072686;28;20119;-62
2021/07/29 04:09:31;;;;;;;23.48;5.50;;;;;;;13.78;87.36;100870.66;5075726;28;20052;-61
2021/07/29 04:11:57;;;;;;;20.65;5.10;;;;;;;13.91;85.88;100860.81;5075747;28;20056;-61
2021/07/29 04:14:22;;;;;;;22.23;5.60;;;;;;;13.92;85.75;100862.53;5071863;28;20502;-60
2021/07/29 04:16:47;;;;;;;23.63;5.15;;;;;;;13.94;85.54;100866.97;5075630;28;20060;-61
2021/07/29 04:19:13;;;;;;;21.65;5.35;;;;;;;13.94;85.33;100856.31;5075569;28;20023;-60
2021/07/29 04:21:38;;;;;;;22.95;5.50;;;;;;;13.96;85.79;100866.94;5075713;28;20021;-61
2021/07/29 04:24:03;;;;;;;26.25;5.32;;;;;;;13.93;85.73;100865.19;5075476;28;20040;-61
2021/07/29 04:26:29;;;;;;;23.55;5.35;;;;;;;13.93;85.80;100870.50;5075588;28;20146;-61
2021/07/29 04:28:54;;;;;;;22.80;5.25;;;;;;;13.92;86.16;100871.41;5075505;28;20036;-61
2021/07/29 04:31:19;;;;;;;22.98;5.47;;;;;;;13.87;86.72;100878.53;5075305;28;20021;-60
2021/07/29 04:33:45;;;;;;;22.48;5.68;;;;;;;13.88;86.47;100877.66;5075501;28;20028;-60
2021/07/29 04:36:10;;;;;;;22.48;5.20;;;;;;;13.96;86.18;100874.91;5075325;28;20021;-61
2021/07/29 04:38:35;;;;;;;23.10;5.70;;;;;;;13.95;86.72;100878.50;5075135;28;20027;-61
2021/07/29 04:41:04;;;;;;;22.65;5.25;;;;;;;13.94;86.59;100885.56;5075378;28;20044;-61
2021/07/29 04:43:30;;;;;;;23.50;5.60;;;;;;;13.99;86.91;100888.16;5074942;28;20497;-61
2021/07/29 04:45:55;;;;;;;24.50;5.47;;;;;;;14.01;86.53;100893.47;5075119;28;20138;-61
2021/07/29 04:48:21;;;;;;;22.15;5.50;;;;;;;14.01;87.11;100890.81;5075398;28;20024;-61
2021/07/29 04:50:46;;;;;;;22.67;5.38;;;;;;;14.08;86.28;100889.84;5075022;28;20459;-61
2021/07/29 04:53:12;;;;;;;23.45;5.43;;;;;;;14.08;86.75;100889.84;5074897;28;20496;-61
2021/07/29 04:55:37;;;;;;;27.25;5.80;;;;;;;14.06;86.08;100894.31;5075115;28;20111;-61
2021/07/29 04:58:03;;;;;;;22.63;5.53;;;;;;;14.06;86.60;100891.66;5074631;28;20072;-61
2021/07/29 05:00:29;;;;;;;22.40;5.38;;;;;;;14.05;87.31;100884.56;5075056;28;20063;-61
2021/07/29 05:02:55;;;;;;;22.70;5.20;;;;;;;14.08;87.06;100887.19;5074965;28;20031;-63
2021/07/29 05:05:20;;;;;;;22.27;5.30;;;;;;;14.11;86.43;100893.38;5074815;28;20028;-61
2021/07/29 05:07:49;;;;;;;21.80;5.30;;;;;;;14.06;86.66;100900.50;5074623;28;20107;-63
2021/07/29 05:10:15;;;;;;;25.25;5.63;;;;;;;14.03;87.07;100894.34;5075041;28;20029;-62
2021/07/29 05:12:40;;;;;;;23.13;5.50;;;;;;;14.02;87.33;100906.75;5074605;28;20505;-63
2021/07/29 05:15:06;;;;;;;25.10;5.45;;;;;;;14.03;86.69;100899.66;5072568;28;20332;-66
2021/07/29 05:17:31;;;;;;;29.17;6.07;;;;;;;14.01;87.00;100893.47;5079828;28;20032;-67
2021/07/29 05:19:56;;;;;;;25.90;5.35;;;;;;;13.97;87.56;100897.06;5078216;28;20410;-66
2021/07/29 05:22:22;;;;;;;26.15;5.78;;;;;;;13.97;87.52;100907.69;5076900;28;20025;-66
2021/07/29 05:24:47;;;;;;;24.02;5.90;;;;;;;13.94;88.11;100908.59;5076980;28;20070;-61
2021/07/29 05:27:12;;;;;;;24.80;5.40;;;;;;;13.99;87.66;100905.91;5078374;28;20028;-65
2021/07/29 05:29:38;;;;;;;23.55;5.55;;;;;;;14.04;87.60;100906.75;5079569;28;20029;-65
2021/07/29 05:32:03;;;;;;;29.25;5.85;;;;;;;14.17;86.62;100918.13;5080573;28;20498;-65
2021/07/29 05:34:29;;;;;;;24.23;5.53;;;;;;;14.30;85.40;100902.06;5079615;28;20470;-63
2021/07/29 05:36:54;;;;;;;23.30;5.03;;;;;;;14.42;84.03;100916.13;5078346;28;20029;-64
2021/07/29 05:39:20;;;;;;;23.98;5.18;;;;;;;14.50;83.95;100906.28;5080468;28;20020;-66
2021/07/29 05:41:45;;;;;;;26.50;5.60;;;;;;;14.53;83.55;100908.91;5077341;28;20037;-68
2021/07/29 05:44:12;;;;;;;24.52;5.40;;;;;;;14.61;83.16;100912.41;5080268;28;20020;-66
2021/07/29 05:46:37;;;;;;;22.10;5.00;;;;;;;14.58;81.99;100904.41;5080441;28;20450;-66
2021/07/29 05:49:03;;;;;;;23.15;5.15;;;;;;;14.54;81.89;100907.13;5077494;28;20021;-62
2021/07/29 05:51:28;;;;;;;23.90;5.22;;;;;;;14.50;82.13;100905.41;5075817;28;20475;-66
2021/07/29 05:53:53;;;;;;;22.80;5.30;;;;;;;14.43;82.62;100905.47;5077961;28;20031;-63
2021/07/29 05:56:19;;;;;;;22.10;5.10;;;;;;;14.44;82.68;100922.31;5075403;28;20020;-67
2021/07/29 05:58:44;;;;;;;23.60;5.53;;;;;;;14.52;82.79;100912.47;5076401;28;20051;-62
2021/07/29 06:01:09;;;;;;;24.42;5.18;;;;;;;14.61;83.15;100928.34;5078550;28;20092;-61
2021/07/29 06:03:35;;;;;;;24.90;5.70;;;;;;;14.68;82.05;100914.97;5078943;28;20101;-67
2021/07/29 06:06:00;;;;;;;22.75;5.63;;;;;;;14.68;80.78;100912.31;5077294;28;20024;-65
2021/07/29 06:08:25;;;;;;;22.45;5.72;;;;;;;14.67;81.10;100911.44;5078353;28;20024;-66
2021/07/29 06:10:51;;;;;;;22.90;5.68;;;;;;;14.57;81.83;100910.63;5078594;28;20048;-66
2021/07/29 06:13:16;;;;;;;26.65;5.10;;;;;;;14.71;80.70;100912.28;5077722;28;20025;-67
2021/07/29 06:15:42;;;;;;;24.50;5.25;;;;;;;14.78;80.98;100917.53;5080228;28;20446;-67
2021/07/29 06:18:10;;;;;;;24.48;5.40;;;;;;;14.81;80.55;100916.63;5078410;28;20403;-66
2021/07/29 06:20:36;;;;;;;24.40;5.22;;;;;;;14.71;80.41;100914.94;5076750;28;20111;-68
2021/07/29 06:23:01;;;;;;;24.85;5.63;;;;;;;14.69;81.72;100920.28;5077466;28;20459;-67
2021/07/29 06:25:27;;;;;;;28.30;5.82;;;;;;;14.70;81.01;100926.50;5078134;28;20034;-67
2021/07/29 06:27:52;;;;;;;26.98;6.15;;;;;;;14.67;81.06;100926.53;5076904;28;20129;-69
2021/07/29 06:30:18;;;;;;;27.08;5.55;;;;;;;14.70;81.13;100932.69;5078269;28;20425;-66
2021/07/29 06:32:44;;;;;;;25.20;5.60;;;;;;;14.84;80.90;100937.88;5076054;28;20554;-65
2021/07/29 06:35:10;;;;;;;26.38;6.22;;;;;;;14.91;80.02;100930.69;5077362;28;20024;-65
2021/07/29 06:37:37;;;;;;;29.20;6.50;;;;;;;14.97;79.81;100957.25;5077728;28;20039;-64
2021/07/29 06:40:02;;;;;;;25.27;5.55;;;;;;;15.04;79.09;100952.69;5078537;28;20017;-62
2021/07/29 06:42:28;;;;;;;28.80;6.15;;;;;;;15.10;77.96;100947.28;5076958;28;20036;-66
2021/07/29 06:44:53;;;;;;;27.30;6.40;;;;;;;15.12;77.72;100945.50;5077581;28;20023;-63
2021/07/29 06:47:20;;;;;;;27.73;6.30;;;;;;;15.12;77.02;100943.72;5075978;28;20366;-66
2021/07/29 06:49:45;;;;;;;25.95;5.97;;;;;;;15.20;77.79;100946.28;5078363;28;20020;-63
2021/07/29 06:52:12;;;;;;;27.13;5.90;;;;;;;15.28;77.33;100963.03;5078817;28;20028;-68
2021/07/29 06:54:37;;;;;;;26.05;6.35;;;;;;;15.30;77.07;100969.25;5080613;28;20017;-64
2021/07/29 06:57:03;;;;;;;27.00;6.47;;;;;;;15.26;77.09;100953.31;5075624;28;20467;-66
2021/07/29 06:59:28;;;;;;;24.85;6.43;;;;;;;15.55;77.43;100965.34;5073771;28;20045;-65
2021/07/29 07:01:54;;;;;;;25.40;6.30;;;;;;;15.66;74.43;100982.94;5077046;28;20024;-64
2021/07/29 07:04:19;;;;;;;25.02;6.07;;;;;;;15.62;74.42;100972.34;5075043;28;20111;-64
2021/07/29 07:06:44;;;;;;;27.77;6.25;;;;;;;15.68;73.45;100962.50;5075639;28;20077;-65
2021/07/29 07:09:10;;;;;;;24.48;6.25;;;;;;;15.66;73.25;100961.63;5076542;28;20060;-64
2021/07/29 07:11:35;;;;;;;28.13;7.05;;;;;;;15.68;73.84;100973.16;5069446;28;20047;-65
2021/07/29 07:14:00;;;;;;;24.25;6.07;;;;;;;15.88;74.02;100965.78;5073757;28;20491;-65
2021/07/29 07:16:26;;;;;;;24.45;6.40;;;;;;;15.92;73.08;100978.16;5077880;28;20058;-64
2021/07/29 07:18:51;;;;;;;27.05;6.20;;;;;;;15.85;72.95;100969.38;5077519;28;20031;-63
2021/07/29 07:21:20;;;;;;;26.45;6.13;;;;;;;15.85;72.19;100982.69;5084781;28;20055;-61
2021/07/29 07:23:45;;;;;;;24.35;6.40;;;;;;;15.79;72.87;100978.34;5076507;28;20032;-63
2021/07/29 07:26:16;;;;;;;25.98;6.45;;;;;;;15.80;72.32;100989.88;5076311;28;20020;-61
2021/07/29 07:28:41;;;;;;;25.17;5.88;;;;;;;15.82;73.13;100985.41;5075404;28;20020;-62
2021/07/29 07:31:07;;;;;;;24.98;6.20;;;;;;;15.96;72.38;100983.44;5073188;28;20035;-62
2021/07/29 07:33:32;;;;;;;25.65;6.35;;;;;;;16.08;71.21;100987.69;5073150;28;20028;-61
2021/07/29 07:35:57;;;;;;;24.67;6.30;;;;;;;16.14;71.67;100995.56;5071302;28;20055;-62
2021/07/29 07:38:22;;;;;;;25.77;6.68;;;;;;;16.14;72.81;100987.56;5069216;28;20013;-61
2021/07/29 07:40:49;;;;;;;26.88;7.00;;;;;;;16.29;72.80;100989.09;5069801;28;20467;-65
2021/07/29 07:43:14;;;;;;;24.52;6.88;;;;;;;16.48;69.93;100981.63;5075103;28;20332;-61
2021/07/29 07:45:40;;;;;;;23.75;6.07;;;;;;;16.78;68.79;100975.78;5074620;28;20018;-64
2021/07/29 07:48:06;;;;;;;25.92;6.50;;;;;;;16.95;68.99;100986.16;5074999;28;20028;-64
2021/07/29 07:50:32;;;;;;;28.52;6.72;;;;;;;16.99;67.60;100986.06;5074792;28;20024;-64
2021/07/29 07:52:57;;;;;;;26.83;6.57;;;;;;;17.14;67.16;100992.00;5078353;28;20031;-63
2021/07/29 07:55:23;;;;;;;28.45;6.78;;;;;;;17.05;66.43;100998.41;5072670;28;20503;-61
2021/07/29 07:57:48;;;;;;;26.17;6.70;;;;;;;16.83;66.80;101000.59;5075785;28;20021;-63
2021/07/29 08:00:15;;;;;;;24.63;6.22;;;;;;;16.79;67.67;100982.88;5073715;28;20044;-63
2021/07/29 08:02:40;;;;;;;24.40;6.47;;;;;;;16.85;67.23;100990.78;5075138;28;20025;-61
2021/07/29 08:05:06;;;;;;;26.77;6.75;;;;;;;17.01;65.62;100994.94;5078729;28;20024;-60
2021/07/29 08:07:32;;;;;;;23.42;6.57;;;;;;;17.31;66.39;100994.31;5076951;28;20028;-61
2021/07/29 08:09:57;;;;;;;26.75;6.90;;;;;;;17.48;64.81;100981.47;5076859;28;20034;-61
2021/07/29 08:12:23;;;;;;;26.38;6.50;;;;;;;17.27;63.67;101001.53;5078126;28;20629;-63
2021/07/29 08:14:48;;;;;;;25.48;6.70;;;;;;;17.19;63.83;100992.78;5078848;28;20458;-61
2021/07/29 08:17:14;;;;;;;24.17;6.80;;;;;;;17.19;65.19;100991.00;5075119;28;20106;-61
2021/07/29 08:19:39;;;;;;;23.30;6.18;;;;;;;17.29;64.21;100999.69;5082231;28;20695;-61
2021/07/29 08:22:04;;;;;;;24.70;6.25;;;;;;;17.49;63.64;101003.72;5078046;28;20054;-61
2021/07/29 08:24:31;;;;;;;24.30;5.80;;;;;;;17.28;62.13;101005.09;5077076;28;20485;-62
2021/07/29 08:26:57;;;;;;;25.85;6.22;;;;;;;17.49;64.28;100998.38;5071947;28;20568;-61
2021/07/29 08:29:23;;;;;;;25.40;6.55;;;;;;;17.51;63.17;100996.56;5076597;28;20095;-60
2021/07/29 08:31:48;;;;;;;25.98;6.57;;;;;;;17.61;62.42;101008.81;5077772;28;21027;-61
2021/07/29 08:34:13;;;;;;;23.85;6.28;;;;;;;17.55;61.36;101015.16;5072547;28;20019;-62
2021/07/29 08:36:42;;;;;;;24.25;6.40;;;;;;;17.54;61.37;101005.38;5074595;28;20093;-61
2021/07/29 08:39:08;;;;;;;24.20;6.63;;;;;;;17.63;62.19;100996.28;5074261;28;20020;-67
2021/07/29 08:41:35;;;;;;;24.35;6.97;;;;;;;17.87;61.82;101000.19;5072758;28;20021;-70
2021/07/29 08:44:00;;;;;;;25.92;6.47;;;;;;;17.93;61.68;100988.50;5073712;28;20486;-61
2021/07/29 08:46:26;;;;;;;24.65;6.38;;;;;;;18.11;61.74;101006.81;5070283;28;20024;-66
2021/07/29 08:48:52;;;;;;;24.70;6.32;;;;;;;18.25;59.42;100998.41;5070479;28;20074;-65
2021/07/29 08:51:20;;;;;;;24.45;6.45;;;;;;;18.51;59.56;101002.22;5072216;28;20020;-67
2021/07/29 08:53:48;;;;;;;24.85;6.28;;;;;;;18.76;57.83;101013.16;5070922;28;20017;-66
2021/07/29 08:56:14;;;;;;;25.15;5.97;;;;;;;18.73;58.33;101007.88;5071696;28;20025;-65
2021/07/29 08:58:41;;;;;;;24.05;5.95;;;;;;;18.59;58.74;101015.41;5078454;28;20044;-61
2021/07/29 09:01:12;;;;;;;24.10;5.97;;;;;;;18.42;59.10;101013.16;5078582;28;20028;-66
2021/07/29 09:03:39;;;;;;;21.30;5.70;;;;;;;18.18;58.79;101006.63;5077158;28;20029;-66
2021/07/29 09:06:10;;;;;;;23.70;5.80;;;;;;;18.01;59.21;101013.25;5075368;28;20024;-65
2021/07/29 09:08:49;;;;;;;24.98;6.68;;;;;;;18.07;58.75;101015.81;5076552;28;20080;-65
2021/07/29 09:11:29;;;;;;;23.52;6.30;;;;;;;18.09;60.26;101021.13;5074601;28;20039;-65
2021/07/29 09:14:07;;;;;;;24.38;6.40;;;;;;;18.10;60.84;101028.22;5077346;28;20074;-63
2021/07/29 09:16:37;;;;;;;24.55;6.50;;;;;;;17.93;60.16;101025.94;5075711;28;20032;-66
2021/07/29 09:19:03;;;;;;;22.67;6.00;;;;;;;17.97;59.73;101021.41;5076356;28;20475;-67
2021/07/29 09:21:28;;;;;;;23.00;5.85;;;;;;;17.98;60.11;101041.88;5080332;28;20059;-65
2021/07/29 09:24:08;;;;;;;22.40;6.00;;;;;;;17.98;59.54;101025.84;5082687;28;20052;-64
2021/07/29 09:26:59;;;;;;;24.00;6.60;;;;;;;17.46;59.91;101028.75;5075573;28;20500;-65
2021/07/29 09:29:27;;;;;;;23.75;6.22;;;;;;;17.53;60.13;101037.50;5077462;28;20023;-64
2021/07/29 09:32:09;;;;;;;25.88;6.78;;;;;;;17.96;61.39;101025.88;5076121;28;20041;-65
2021/07/29 09:34:48;;;;;;;23.55;6.45;;;;;;;18.45;60.18;101027.34;5075291;28;20032;-65
2021/07/29 09:37:15;;;;;;;23.63;6.00;;;;;;;18.66;58.62;101019.69;5075953;28;20024;-65
2021/07/29 09:39:41;;;;;;;22.17;6.03;;;;;;;18.79;57.73;101013.06;5076658;28;20028;-65
2021/07/29 09:42:18;;;;;;;23.02;6.38;;;;;;;19.08;57.38;101013.22;5077500;28;20572;-67
2021/07/29 09:44:45;;;;;;;25.02;6.35;;;;;;;19.45;54.64;101020.19;5076958;28;20032;-66
2021/07/29 09:47:11;;;;;;;22.00;6.22;;;;;;;19.97;53.11;101017.75;5076606;28;20040;-66
2021/07/29 09:49:37;;;;;;;23.85;5.68;;;;;;;20.01;52.67;101022.09;5075227;28;20158;-65
2021/07/29 09:52:04;;;;;;;22.05;5.85;;;;;;;19.49;54.20;101027.22;5075604;28;20029;-67
2021/07/29 09:54:30;;;;;;;21.63;5.88;;;;;;;19.14;53.83;101030.00;5073556;28;20158;-67
2021/07/29 09:56:55;;;;;;;21.33;5.80;;;;;;;18.66;54.83;101021.50;5073285;28;20095;-68
2021/07/29 09:59:21;;;;;;;21.80;5.90;;;;;;;18.31;56.10;101037.53;5073040;28;20094;-67
2021/07/29 10:01:47;;;;;;;23.85;6.10;;;;;;;18.15;56.72;101041.50;5073340;28;20094;-70
2021/07/29 10:04:14;;;;;;;22.55;5.80;;;;;;;18.20;57.40;101036.91;5073223;28;20040;-73
2021/07/29 10:06:40;;;;;;;23.10;5.70;;;;;;;18.23;57.61;101043.06;5072781;28;20551;-75
2021/07/29 10:09:15;;;;;;;23.55;6.00;;;;;;;18.40;57.39;101037.28;5073049;28;20052;-71
2021/07/29 10:11:48;;;;;;;25.38;5.80;;;;;;;18.84;57.29;101039.72;5073332;28;20046;-75
2021/07/29 10:14:33;;;;;;;24.00;6.00;;;;;;;18.75;57.45;101035.50;5073233;28;20039;-72
2021/07/29 10:17:00;;;;;;;21.67;5.60;;;;;;;18.43;57.28;101028.31;5069840;28;20028;-72
2021/07/29 10:19:26;;;;;;;21.48;5.70;;;;;;;18.25;58.74;101017.16;5073286;28;20025;-70
2021/07/29 10:21:51;;;;;;;24.83;5.90;;;;;;;18.21;58.59;101020.81;5073345;28;20090;-79
2021/07/29 10:24:16;;;;;;;22.27;5.88;;;;;;;19.09;59.64;101021.22;5073189;28;20028;-77
2021/07/29 10:27:00;;;;;;;22.90;5.60;;;;;;;20.44;53.51;101015.28;5072986;28;20056;-64
2021/07/29 10:29:30;;;;;;;22.65;5.40;;;;;;;21.55;49.96;101021.19;5069990;28;20458;-78
2021/07/29 10:32:02;;;;;;;24.80;5.30;;;;;;;23.00;45.58;101009.81;5069441;28;20024;-73
2021/07/29 10:34:33;;;;;;;22.00;5.35;;;;;;;21.87;45.67;101022.63;5069482;28;20056;-68
2021/07/29 10:37:06;;;;;;;19.65;5.07;;;;;;;20.44;48.48;101023.31;5069588;28;20482;-81
2021/07/29 10:39:59;;;;;;;23.33;5.63;;;;;;;19.37;52.77;101022.19;5073487;28;20383;-76
2021/07/29 10:42:28;;;;;;;22.67;5.72;;;;;;;18.81;52.58;101038.03;5069505;28;20025;-66
2021/07/29 10:44:54;;;;;;;22.70;5.10;;;;;;;18.81;52.93;101021.97;5070525;28;20085;-70
2021/07/29 10:47:49;;;;;;;21.73;5.28;;;;;;;18.85;54.75;101035.25;5074705;28;20524;-64
2021/07/29 10:50:15;;;;;;;20.48;4.80;;;;;;;18.66;53.41;101033.06;4999027;28;20503;-65
2021/07/29 10:52:44;;;;;;;20.63;4.97;;;;;;;18.32;55.18;101031.25;4998192;28;20033;-64
2021/07/29 10:55:10;;;;;;;22.98;5.45;;;;;;;17.95;56.11;101053.53;4999420;28;20057;-63
2021/07/29 10:57:35;;;;;;;21.17;5.82;;;;;;;16.99;66.09;101050.13;4994897;28;20473;-66
2021/07/29 11:00:01;;;;;;;25.50;6.30;;;;;;;15.99;69.96;101057.16;4997033;28;20723;-68
2021/07/29 11:02:47;;;;;;;25.48;7.13;;;;;;;15.61;73.73;101066.50;4995648;28;20093;-67
2021/07/29 11:05:26;;;;;;;24.25;6.75;;;;;;;15.98;72.42;101061.59;4995951;28;20092;-63
2021/07/29 11:07:51;;;;;;;24.35;7.53;;;;;;;18.15;75.75;101068.25;4997383;28;20526;-64
2021/07/29 11:10:21;;;;;;;21.58;6.20;;;;;;;20.09;63.00;101062.94;4997733;28;20030;-64
2021/07/29 11:12:48;;;;;;;22.10;6.20;;;;;;;20.97;59.52;101054.66;4996130;28;20034;-65
2021/07/29 11:15:14;;;;;;;21.48;5.68;;;;;;;21.83;54.52;101057.75;4996389;28;20037;-65
2021/07/29 11:17:39;;;;;;;21.95;6.03;;;;;;;21.50;55.30;101056.28;4995186;28;20484;-65